sensor_id;sensor_type;location;lat;lon;timestamp;P1;durP1;ratioP1;P2;durP2;ratioP2
73421;SDS011;61637;47.760;-122.022;2023-03-23T00:00:01;7.7;;;2.7;;
73421;SDS011;61637;47.760;-122.022;2023-03-23T00:02:01;7.8;;;2.9;;
73421;SDS011;61637;47.760;-122.022;2023-03-23T00:04:00;8.3;;;2.8;;
73421;SDS011;61637;47.760;-122.022;2023-03-23T00:06:01;8.1;;;3.0;;
73421;SDS011;61637;47.760;-122.022;2023-03-23T00:08:00;9.7;;;2.8;;
73421;SDS011;61637;47.760;-122.022;2023-03-23T00:10:02;9.6;;;2.9;;
73421;SDS011;61637;47.760;-122.022;2023-03-23T00:12:01;9.4;;;2.9;;
73421;SDS011;61637;47.760;-122.022;2023-03-23T00:14:01;10.0;;;2.5;;
73421;SDS011;61637;47.760;-122.022;2023-03-23T00:16:00;9.4;;;2.8;;
73421;SDS011;61637;47.760;-122.022;2023-03-23T00:18:01;8.2;;;2.8;;
73421;SDS011;61637;47.760;-122.022;2023-03-23T00:20:02;9.0;;;2.6;;
73421;SDS011;61637;47.760;-122.022;2023-03-23T00:22:01;8.7;;;2.6;;
73421;SDS011;61637;47.760;-122.022;2023-03-23T00:24:05;7.6;;;2.6;;
73421;SDS011;61637;47.760;-122.022;2023-03-23T00:26:01;7.7;;;2.6;;
73421;SDS011;61637;47.760;-122.022;2023-03-23T00:28:00;9.9;;;2.8;;
73421;SDS011;61637;47.760;-122.022;2023-03-23T00:30:01;9.4;;;2.6;;
73421;SDS011;61637;47.760;-122.022;2023-03-23T00:32:01;8.9;;;2.7;;
73421;SDS011;61637;47.760;-122.022;2023-03-23T00:34:03;7.1;;;2.5;;
73421;SDS011;61637;47.760;-122.022;2023-03-23T00:36:01;9.1;;;2.5;;
73421;SDS011;61637;47.760;-122.022;2023-03-23T00:38:01;7.8;;;2.6;;
73421;SDS011;61637;47.760;-122.022;2023-03-23T00:40:00;8.4;;;2.7;;
73421;SDS011;61637;47.760;-122.022;2023-03-23T00:42:00;8.8;;;2.9;;
73421;SDS011;61637;47.760;-122.022;2023-03-23T00:44:00;9.0;;;3.0;;
73421;SDS011;61637;47.760;-122.022;2023-03-23T00:46:01;9.6;;;2.7;;
73421;SDS011;61637;47.760;-122.022;2023-03-23T00:48:01;7.4;;;2.6;;
73421;SDS011;61637;47.760;-122.022;2023-03-23T00:50:01;7.9;;;2.4;;
73421;SDS011;61637;47.760;-122.022;2023-03-23T00:52:02;8.0;;;2.6;;
73421;SDS011;61637;47.760;-122.022;2023-03-23T00:54:00;8.5;;;2.7;;
73421;SDS011;61637;47.760;-122.022;2023-03-23T00:56:00;9.0;;;2.7;;
73421;SDS011;61637;47.760;-122.022;2023-03-23T00:58:00;8.3;;;2.6;;
73421;SDS011;61637;47.760;-122.022;2023-03-23T01:00:01;10.2;;;2.7;;
73421;SDS011;61637;47.760;-122.022;2023-03-23T01:02:01;10.2;;;2.8;;
73421;SDS011;61637;47.760;-122.022;2023-03-23T01:04:02;9.4;;;2.8;;
73421;SDS011;61637;47.760;-122.022;2023-03-23T01:06:04;10.1;;;2.7;;
73421;SDS011;61637;47.760;-122.022;2023-03-23T01:08:01;7.1;;;2.7;;
73421;SDS011;61637;47.760;-122.022;2023-03-23T01:10:00;7.5;;;2.6;;
73421;SDS011;61637;47.760;-122.022;2023-03-23T01:12:01;7.2;;;2.7;;
73421;SDS011;61637;47.760;-122.022;2023-03-23T01:14:01;7.6;;;2.7;;
73421;SDS011;61637;47.760;-122.022;2023-03-23T01:16:01;7.2;;;2.8;;
73421;SDS011;61637;47.760;-122.022;2023-03-23T01:18:00;8.9;;;2.9;;
73421;SDS011;61637;47.760;-122.022;2023-03-23T01:20:00;8.9;;;3.0;;
73421;SDS011;61637;47.760;-122.022;2023-03-23T01:22:00;10.1;;;2.7;;
73421;SDS011;61637;47.760;-122.022;2023-03-23T01:24:01;9.9;;;2.6;;
73421;SDS011;61637;47.760;-122.022;2023-03-23T01:26:04;8.9;;;3.0;;
73421;SDS011;61637;47.760;-122.022;2023-03-23T01:28:01;9.5;;;2.7;;
73421;SDS011;61637;47.760;-122.022;2023-03-23T01:30:01;8.7;;;2.6;;
73421;SDS011;61637;47.760;-122.022;2023-03-23T01:32:01;8.8;;;2.6;;
73421;SDS011;61637;47.760;-122.022;2023-03-23T01:34:01;7.1;;;2.7;;
73421;SDS011;61637;47.760;-122.022;2023-03-23T01:36:04;7.5;;;2.5;;
73421;SDS011;61637;47.760;-122.022;2023-03-23T01:38:01;9.3;;;2.6;;
73421;SDS011;61637;47.760;-122.022;2023-03-23T01:40:00;8.2;;;2.6;;
73421;SDS011;61637;47.760;-122.022;2023-03-23T01:42:00;8.1;;;2.7;;
73421;SDS011;61637;47.760;-122.022;2023-03-23T01:44:03;8.3;;;2.6;;
73421;SDS011;61637;47.760;-122.022;2023-03-23T01:46:00;7.7;;;2.8;;
73421;SDS011;61637;47.760;-122.022;2023-03-23T01:48:08;11.0;;;2.6;;
73421;SDS011;61637;47.760;-122.022;2023-03-23T01:50:01;7.6;;;2.7;;
73421;SDS011;61637;47.760;-122.022;2023-03-23T01:52:04;6.2;;;2.4;;
73421;SDS011;61637;47.760;-122.022;2023-03-23T01:54:03;11.0;;;2.5;;
73421;SDS011;61637;47.760;-122.022;2023-03-23T01:56:01;10.3;;;2.4;;
73421;SDS011;61637;47.760;-122.022;2023-03-23T01:58:01;7.6;;;2.5;;
73421;SDS011;61637;47.760;-122.022;2023-03-23T02:00:06;8.0;;;2.3;;
73421;SDS011;61637;47.760;-122.022;2023-03-23T02:02:01;6.2;;;2.4;;
73421;SDS011;61637;47.760;-122.022;2023-03-23T02:04:00;8.1;;;2.5;;
73421;SDS011;61637;47.760;-122.022;2023-03-23T02:06:00;9.6;;;2.3;;
73421;SDS011;61637;47.760;-122.022;2023-03-23T02:08:02;7.8;;;2.3;;
73421;SDS011;61637;47.760;-122.022;2023-03-23T02:10:00;9.0;;;2.3;;
73421;SDS011;61637;47.760;-122.022;2023-03-23T02:12:00;7.0;;;2.5;;
73421;SDS011;61637;47.760;-122.022;2023-03-23T02:14:02;7.8;;;2.4;;
73421;SDS011;61637;47.760;-122.022;2023-03-23T02:16:06;6.8;;;2.6;;
73421;SDS011;61637;47.760;-122.022;2023-03-23T02:18:07;9.7;;;2.4;;
73421;SDS011;61637;47.760;-122.022;2023-03-23T02:20:15;7.7;;;2.4;;
73421;SDS011;61637;47.760;-122.022;2023-03-23T02:22:18;8.6;;;2.5;;
73421;SDS011;61637;47.760;-122.022;2023-03-23T02:24:16;6.6;;;2.4;;
73421;SDS011;61637;47.760;-122.022;2023-03-23T02:26:16;7.4;;;2.5;;
73421;SDS011;61637;47.760;-122.022;2023-03-23T02:28:16;8.1;;;2.5;;
73421;SDS011;61637;47.760;-122.022;2023-03-23T02:30:09;9.1;;;2.3;;
73421;SDS011;61637;47.760;-122.022;2023-03-23T02:32:12;13.6;;;2.9;;
73421;SDS011;61637;47.760;-122.022;2023-03-23T02:34:03;13.6;;;2.9;;
73421;SDS011;61637;47.760;-122.022;2023-03-23T02:36:07;7.6;;;2.5;;
73421;SDS011;61637;47.760;-122.022;2023-03-23T02:38:05;8.5;;;2.5;;
73421;SDS011;61637;47.760;-122.022;2023-03-23T02:40:06;7.7;;;2.5;;
73421;SDS011;61637;47.760;-122.022;2023-03-23T02:42:04;9.0;;;2.7;;
73421;SDS011;61637;47.760;-122.022;2023-03-23T02:44:02;9.0;;;2.5;;
73421;SDS011;61637;47.760;-122.022;2023-03-23T02:46:02;9.3;;;2.5;;
73421;SDS011;61637;47.760;-122.022;2023-03-23T02:48:02;8.3;;;2.7;;
73421;SDS011;61637;47.760;-122.022;2023-03-23T02:50:02;10.6;;;3.2;;
73421;SDS011;61637;47.760;-122.022;2023-03-23T02:52:04;11.6;;;3.9;;
73421;SDS011;61637;47.760;-122.022;2023-03-23T02:54:02;13.1;;;5.2;;
73421;SDS011;61637;47.760;-122.022;2023-03-23T02:56:02;13.3;;;4.9;;
73421;SDS011;61637;47.760;-122.022;2023-03-23T02:58:00;12.8;;;4.2;;
73421;SDS011;61637;47.760;-122.022;2023-03-23T03:00:01;11.7;;;4.1;;
73421;SDS011;61637;47.760;-122.022;2023-03-23T03:02:04;12.0;;;4.2;;
73421;SDS011;61637;47.760;-122.022;2023-03-23T03:04:03;10.7;;;3.8;;
73421;SDS011;61637;47.760;-122.022;2023-03-23T03:06:10;9.1;;;3.6;;
73421;SDS011;61637;47.760;-122.022;2023-03-23T03:08:07;12.3;;;4.1;;
73421;SDS011;61637;47.760;-122.022;2023-03-23T03:10:03;10.4;;;4.1;;
73421;SDS011;61637;47.760;-122.022;2023-03-23T03:12:07;9.4;;;3.6;;
73421;SDS011;61637;47.760;-122.022;2023-03-23T03:14:06;10.9;;;3.8;;
73421;SDS011;61637;47.760;-122.022;2023-03-23T03:16:07;10.8;;;3.9;;
73421;SDS011;61637;47.760;-122.022;2023-03-23T03:18:07;9.6;;;3.7;;
73421;SDS011;61637;47.760;-122.022;2023-03-23T03:20:03;10.3;;;4.3;;
73421;SDS011;61637;47.760;-122.022;2023-03-23T03:22:01;10.3;;;3.9;;
73421;SDS011;61637;47.760;-122.022;2023-03-23T03:24:03;9.8;;;4.1;;
73421;SDS011;61637;47.760;-122.022;2023-03-23T03:26:02;8.4;;;4.1;;
73421;SDS011;61637;47.760;-122.022;2023-03-23T03:28:02;10.8;;;4.0;;
73421;SDS011;61637;47.760;-122.022;2023-03-23T03:30:04;11.2;;;4.1;;
73421;SDS011;61637;47.760;-122.022;2023-03-23T03:32:03;10.4;;;3.8;;
73421;SDS011;61637;47.760;-122.022;2023-03-23T03:34:00;8.3;;;3.8;;
73421;SDS011;61637;47.760;-122.022;2023-03-23T03:36:04;11.4;;;3.8;;
73421;SDS011;61637;47.760;-122.022;2023-03-23T03:38:05;13.1;;;3.9;;
73421;SDS011;61637;47.760;-122.022;2023-03-23T03:40:00;10.2;;;3.8;;
73421;SDS011;61637;47.760;-122.022;2023-03-23T03:42:00;9.7;;;4.1;;
73421;SDS011;61637;47.760;-122.022;2023-03-23T03:44:01;9.2;;;3.8;;
73421;SDS011;61637;47.760;-122.022;2023-03-23T03:46:00;12.9;;;3.9;;
73421;SDS011;61637;47.760;-122.022;2023-03-23T03:48:01;10.1;;;4.0;;
73421;SDS011;61637;47.760;-122.022;2023-03-23T03:50:01;10.6;;;4.1;;
73421;SDS011;61637;47.760;-122.022;2023-03-23T03:52:00;9.1;;;3.7;;
73421;SDS011;61637;47.760;-122.022;2023-03-23T03:54:01;9.5;;;4.0;;
73421;SDS011;61637;47.760;-122.022;2023-03-23T03:56:00;10.2;;;3.9;;
73421;SDS011;61637;47.760;-122.022;2023-03-23T03:58:01;9.1;;;4.0;;
73421;SDS011;61637;47.760;-122.022;2023-03-23T04:00:01;9.9;;;4.2;;
73421;SDS011;61637;47.760;-122.022;2023-03-23T04:02:01;10.8;;;4.3;;
73421;SDS011;61637;47.760;-122.022;2023-03-23T04:04:01;9.9;;;3.7;;
73421;SDS011;61637;47.760;-122.022;2023-03-23T04:06:00;13.1;;;3.7;;
73421;SDS011;61637;47.760;-122.022;2023-03-23T04:08:00;10.0;;;4.0;;
73421;SDS011;61637;47.760;-122.022;2023-03-23T04:10:00;14.1;;;4.0;;
73421;SDS011;61637;47.760;-122.022;2023-03-23T04:12:01;12.5;;;3.9;;
73421;SDS011;61637;47.760;-122.022;2023-03-23T04:14:01;8.2;;;3.7;;
73421;SDS011;61637;47.760;-122.022;2023-03-23T04:16:01;10.6;;;3.8;;
73421;SDS011;61637;47.760;-122.022;2023-03-23T04:18:01;10.5;;;4.3;;
73421;SDS011;61637;47.760;-122.022;2023-03-23T04:20:00;9.7;;;4.3;;
73421;SDS011;61637;47.760;-122.022;2023-03-23T04:22:00;8.7;;;3.7;;
73421;SDS011;61637;47.760;-122.022;2023-03-23T04:24:01;8.8;;;3.5;;
73421;SDS011;61637;47.760;-122.022;2023-03-23T04:26:02;9.6;;;4.0;;
73421;SDS011;61637;47.760;-122.022;2023-03-23T04:28:00;9.7;;;4.0;;
73421;SDS011;61637;47.760;-122.022;2023-03-23T04:30:00;8.7;;;3.9;;
73421;SDS011;61637;47.760;-122.022;2023-03-23T04:32:00;10.6;;;4.1;;
73421;SDS011;61637;47.760;-122.022;2023-03-23T04:34:00;7.5;;;3.7;;
73421;SDS011;61637;47.760;-122.022;2023-03-23T04:36:01;10.4;;;4.1;;
73421;SDS011;61637;47.760;-122.022;2023-03-23T04:38:01;8.5;;;3.5;;
73421;SDS011;61637;47.760;-122.022;2023-03-23T04:40:00;8.7;;;3.6;;
73421;SDS011;61637;47.760;-122.022;2023-03-23T04:42:00;10.1;;;3.5;;
73421;SDS011;61637;47.760;-122.022;2023-03-23T04:44:01;9.1;;;3.5;;
73421;SDS011;61637;47.760;-122.022;2023-03-23T04:46:01;9.9;;;3.5;;
73421;SDS011;61637;47.760;-122.022;2023-03-23T04:48:01;9.6;;;3.7;;
73421;SDS011;61637;47.760;-122.022;2023-03-23T04:50:01;8.6;;;3.4;;
73421;SDS011;61637;47.760;-122.022;2023-03-23T04:52:00;9.0;;;3.4;;
73421;SDS011;61637;47.760;-122.022;2023-03-23T04:54:01;9.6;;;3.4;;
73421;SDS011;61637;47.760;-122.022;2023-03-23T04:56:00;8.0;;;3.2;;
73421;SDS011;61637;47.760;-122.022;2023-03-23T04:58:00;9.6;;;3.5;;
73421;SDS011;61637;47.760;-122.022;2023-03-23T05:00:02;7.9;;;3.4;;
73421;SDS011;61637;47.760;-122.022;2023-03-23T05:02:01;7.9;;;3.3;;
73421;SDS011;61637;47.760;-122.022;2023-03-23T05:04:00;9.8;;;3.4;;
73421;SDS011;61637;47.760;-122.022;2023-03-23T05:06:02;8.2;;;3.6;;
73421;SDS011;61637;47.760;-122.022;2023-03-23T05:08:00;9.2;;;3.6;;
73421;SDS011;61637;47.760;-122.022;2023-03-23T05:10:01;9.4;;;3.8;;
73421;SDS011;61637;47.760;-122.022;2023-03-23T05:12:03;11.1;;;3.8;;
73421;SDS011;61637;47.760;-122.022;2023-03-23T05:14:03;9.0;;;3.4;;
73421;SDS011;61637;47.760;-122.022;2023-03-23T05:16:04;10.5;;;3.6;;
73421;SDS011;61637;47.760;-122.022;2023-03-23T05:18:00;7.9;;;3.6;;
73421;SDS011;61637;47.760;-122.022;2023-03-23T05:20:03;9.0;;;3.4;;
73421;SDS011;61637;47.760;-122.022;2023-03-23T05:22:01;9.5;;;3.5;;
73421;SDS011;61637;47.760;-122.022;2023-03-23T05:24:01;9.6;;;3.4;;
73421;SDS011;61637;47.760;-122.022;2023-03-23T05:26:01;9.0;;;3.4;;
73421;SDS011;61637;47.760;-122.022;2023-03-23T05:28:00;7.7;;;3.6;;
73421;SDS011;61637;47.760;-122.022;2023-03-23T05:30:00;6.9;;;3.0;;
73421;SDS011;61637;47.760;-122.022;2023-03-23T05:32:00;11.0;;;3.7;;
73421;SDS011;61637;47.760;-122.022;2023-03-23T05:36:02;9.4;;;3.4;;
73421;SDS011;61637;47.760;-122.022;2023-03-23T05:38:01;8.1;;;3.4;;
73421;SDS011;61637;47.760;-122.022;2023-03-23T05:40:02;10.5;;;3.5;;
73421;SDS011;61637;47.760;-122.022;2023-03-23T05:42:02;11.2;;;3.5;;
73421;SDS011;61637;47.760;-122.022;2023-03-23T05:44:01;12.1;;;3.4;;
73421;SDS011;61637;47.760;-122.022;2023-03-23T05:46:01;7.9;;;3.5;;
73421;SDS011;61637;47.760;-122.022;2023-03-23T05:48:02;10.9;;;3.2;;
73421;SDS011;61637;47.760;-122.022;2023-03-23T05:50:01;11.9;;;3.2;;
73421;SDS011;61637;47.760;-122.022;2023-03-23T05:52:01;7.8;;;3.3;;
73421;SDS011;61637;47.760;-122.022;2023-03-23T05:54:02;8.5;;;3.3;;
73421;SDS011;61637;47.760;-122.022;2023-03-23T05:56:01;10.2;;;3.3;;
73421;SDS011;61637;47.760;-122.022;2023-03-23T05:58:01;9.4;;;3.4;;
73421;SDS011;61637;47.760;-122.022;2023-03-23T06:00:02;10.3;;;3.4;;
73421;SDS011;61637;47.760;-122.022;2023-03-23T06:02:02;8.8;;;3.3;;
73421;SDS011;61637;47.760;-122.022;2023-03-23T06:04:02;9.5;;;3.4;;
73421;SDS011;61637;47.760;-122.022;2023-03-23T06:06:01;8.4;;;3.4;;
73421;SDS011;61637;47.760;-122.022;2023-03-23T06:08:01;7.4;;;3.5;;
73421;SDS011;61637;47.760;-122.022;2023-03-23T06:10:01;7.9;;;3.6;;
73421;SDS011;61637;47.760;-122.022;2023-03-23T06:12:01;8.2;;;3.3;;
73421;SDS011;61637;47.760;-122.022;2023-03-23T06:14:01;10.5;;;3.9;;
73421;SDS011;61637;47.760;-122.022;2023-03-23T06:16:01;10.0;;;3.3;;
73421;SDS011;61637;47.760;-122.022;2023-03-23T06:18:01;8.4;;;3.6;;
73421;SDS011;61637;47.760;-122.022;2023-03-23T06:20:01;7.8;;;3.5;;
73421;SDS011;61637;47.760;-122.022;2023-03-23T06:22:01;8.6;;;3.6;;
73421;SDS011;61637;47.760;-122.022;2023-03-23T06:24:02;10.1;;;3.5;;
73421;SDS011;61637;47.760;-122.022;2023-03-23T06:26:04;12.5;;;3.8;;
73421;SDS011;61637;47.760;-122.022;2023-03-23T06:28:01;8.4;;;3.3;;
73421;SDS011;61637;47.760;-122.022;2023-03-23T06:30:01;12.5;;;3.3;;
73421;SDS011;61637;47.760;-122.022;2023-03-23T06:32:03;11.6;;;3.5;;
73421;SDS011;61637;47.760;-122.022;2023-03-23T06:34:01;8.2;;;3.0;;
73421;SDS011;61637;47.760;-122.022;2023-03-23T06:36:02;9.5;;;3.0;;
73421;SDS011;61637;47.760;-122.022;2023-03-23T06:38:01;11.0;;;3.2;;
73421;SDS011;61637;47.760;-122.022;2023-03-23T06:40:02;7.3;;;2.8;;
73421;SDS011;61637;47.760;-122.022;2023-03-23T06:42:01;9.3;;;3.1;;
73421;SDS011;61637;47.760;-122.022;2023-03-23T06:44:01;6.8;;;2.7;;
73421;SDS011;61637;47.760;-122.022;2023-03-23T06:46:02;10.4;;;3.1;;
73421;SDS011;61637;47.760;-122.022;2023-03-23T06:48:01;7.8;;;2.8;;
73421;SDS011;61637;47.760;-122.022;2023-03-23T06:50:01;10.0;;;2.9;;
73421;SDS011;61637;47.760;-122.022;2023-03-23T06:52:01;10.0;;;2.9;;
73421;SDS011;61637;47.760;-122.022;2023-03-23T06:54:01;7.2;;;3.0;;
73421;SDS011;61637;47.760;-122.022;2023-03-23T06:56:01;10.7;;;2.7;;
73421;SDS011;61637;47.760;-122.022;2023-03-23T06:58:01;8.7;;;2.7;;
73421;SDS011;61637;47.760;-122.022;2023-03-23T07:00:02;9.1;;;3.1;;
73421;SDS011;61637;47.760;-122.022;2023-03-23T07:02:01;8.2;;;2.8;;
73421;SDS011;61637;47.760;-122.022;2023-03-23T07:04:01;8.9;;;2.8;;
73421;SDS011;61637;47.760;-122.022;2023-03-23T07:06:01;9.8;;;2.9;;
73421;SDS011;61637;47.760;-122.022;2023-03-23T07:08:02;9.5;;;2.7;;
73421;SDS011;61637;47.760;-122.022;2023-03-23T07:10:02;9.8;;;2.7;;
73421;SDS011;61637;47.760;-122.022;2023-03-23T07:12:01;9.6;;;2.9;;
73421;SDS011;61637;47.760;-122.022;2023-03-23T07:14:01;9.5;;;2.8;;
73421;SDS011;61637;47.760;-122.022;2023-03-23T07:16:03;8.3;;;2.8;;
73421;SDS011;61637;47.760;-122.022;2023-03-23T07:18:01;8.3;;;2.6;;
73421;SDS011;61637;47.760;-122.022;2023-03-23T07:20:02;11.0;;;2.8;;
73421;SDS011;61637;47.760;-122.022;2023-03-23T07:22:01;8.6;;;2.9;;
73421;SDS011;61637;47.760;-122.022;2023-03-23T07:24:01;9.3;;;2.4;;
73421;SDS011;61637;47.760;-122.022;2023-03-23T07:26:01;8.5;;;2.7;;
73421;SDS011;61637;47.760;-122.022;2023-03-23T07:28:01;8.1;;;2.6;;
73421;SDS011;61637;47.760;-122.022;2023-03-23T07:30:01;9.8;;;2.9;;
73421;SDS011;61637;47.760;-122.022;2023-03-23T07:32:01;8.6;;;2.7;;
73421;SDS011;61637;47.760;-122.022;2023-03-23T07:34:02;9.6;;;2.9;;
73421;SDS011;61637;47.760;-122.022;2023-03-23T07:36:01;8.3;;;2.8;;
73421;SDS011;61637;47.760;-122.022;2023-03-23T07:38:01;8.2;;;2.4;;
73421;SDS011;61637;47.760;-122.022;2023-03-23T07:40:02;9.2;;;2.8;;
73421;SDS011;61637;47.760;-122.022;2023-03-23T07:42:01;11.3;;;2.8;;
73421;SDS011;61637;47.760;-122.022;2023-03-23T07:44:01;10.5;;;2.9;;
73421;SDS011;61637;47.760;-122.022;2023-03-23T07:46:01;9.1;;;2.8;;
73421;SDS011;61637;47.760;-122.022;2023-03-23T07:48:01;8.8;;;2.9;;
73421;SDS011;61637;47.760;-122.022;2023-03-23T07:50:01;9.5;;;3.1;;
73421;SDS011;61637;47.760;-122.022;2023-03-23T07:52:01;9.6;;;3.0;;
73421;SDS011;61637;47.760;-122.022;2023-03-23T07:54:01;9.1;;;3.1;;
73421;SDS011;61637;47.760;-122.022;2023-03-23T07:56:01;9.1;;;2.9;;
73421;SDS011;61637;47.760;-122.022;2023-03-23T07:58:01;9.5;;;3.2;;
73421;SDS011;61637;47.760;-122.022;2023-03-23T08:00:02;8.9;;;2.9;;
73421;SDS011;61637;47.760;-122.022;2023-03-23T08:02:01;10.8;;;3.1;;
73421;SDS011;61637;47.760;-122.022;2023-03-23T08:04:01;9.3;;;2.9;;
73421;SDS011;61637;47.760;-122.022;2023-03-23T08:06:01;10.4;;;3.3;;
73421;SDS011;61637;47.760;-122.022;2023-03-23T08:08:01;8.5;;;3.3;;
73421;SDS011;61637;47.760;-122.022;2023-03-23T08:10:02;10.7;;;3.2;;
73421;SDS011;61637;47.760;-122.022;2023-03-23T08:12:01;10.9;;;3.1;;
73421;SDS011;61637;47.760;-122.022;2023-03-23T08:14:01;9.9;;;3.6;;
73421;SDS011;61637;47.760;-122.022;2023-03-23T08:16:02;9.6;;;3.1;;
73421;SDS011;61637;47.760;-122.022;2023-03-23T08:18:01;11.3;;;3.0;;
73421;SDS011;61637;47.760;-122.022;2023-03-23T08:20:02;8.5;;;3.0;;
73421;SDS011;61637;47.760;-122.022;2023-03-23T08:22:01;9.0;;;2.9;;
73421;SDS011;61637;47.760;-122.022;2023-03-23T08:24:01;9.5;;;3.1;;
73421;SDS011;61637;47.760;-122.022;2023-03-23T08:26:01;8.8;;;3.0;;
73421;SDS011;61637;47.760;-122.022;2023-03-23T08:28:01;8.8;;;2.9;;
73421;SDS011;61637;47.760;-122.022;2023-03-23T08:30:02;8.6;;;2.9;;
73421;SDS011;61637;47.760;-122.022;2023-03-23T08:32:01;11.5;;;2.9;;
73421;SDS011;61637;47.760;-122.022;2023-03-23T08:34:01;11.3;;;3.0;;
73421;SDS011;61637;47.760;-122.022;2023-03-23T08:36:01;9.8;;;3.0;;
73421;SDS011;61637;47.760;-122.022;2023-03-23T08:38:01;9.0;;;2.6;;
73421;SDS011;61637;47.760;-122.022;2023-03-23T08:40:02;9.4;;;2.5;;
73421;SDS011;61637;47.760;-122.022;2023-03-23T08:42:01;10.2;;;2.4;;
73421;SDS011;61637;47.760;-122.022;2023-03-23T08:44:01;8.2;;;2.2;;
73421;SDS011;61637;47.760;-122.022;2023-03-23T08:46:01;8.7;;;2.4;;
73421;SDS011;61637;47.760;-122.022;2023-03-23T08:48:01;7.9;;;2.3;;
73421;SDS011;61637;47.760;-122.022;2023-03-23T08:50:02;8.0;;;2.4;;
73421;SDS011;61637;47.760;-122.022;2023-03-23T08:52:02;6.3;;;2.1;;
73421;SDS011;61637;47.760;-122.022;2023-03-23T08:54:01;8.4;;;2.1;;
73421;SDS011;61637;47.760;-122.022;2023-03-23T08:56:06;6.9;;;2.2;;
73421;SDS011;61637;47.760;-122.022;2023-03-23T08:58:01;8.5;;;2.4;;
73421;SDS011;61637;47.760;-122.022;2023-03-23T09:00:02;7.9;;;2.3;;
73421;SDS011;61637;47.760;-122.022;2023-03-23T09:02:01;8.7;;;2.3;;
73421;SDS011;61637;47.760;-122.022;2023-03-23T09:04:01;9.8;;;2.2;;
73421;SDS011;61637;47.760;-122.022;2023-03-23T09:06:04;8.7;;;2.7;;
73421;SDS011;61637;47.760;-122.022;2023-03-23T09:08:01;8.2;;;2.3;;
73421;SDS011;61637;47.760;-122.022;2023-03-23T09:10:02;8.5;;;2.1;;
73421;SDS011;61637;47.760;-122.022;2023-03-23T09:12:01;9.2;;;2.2;;
73421;SDS011;61637;47.760;-122.022;2023-03-23T09:14:02;6.7;;;1.9;;
73421;SDS011;61637;47.760;-122.022;2023-03-23T09:16:02;8.5;;;2.1;;
73421;SDS011;61637;47.760;-122.022;2023-03-23T09:18:01;7.9;;;2.2;;
73421;SDS011;61637;47.760;-122.022;2023-03-23T09:20:02;8.2;;;2.1;;
73421;SDS011;61637;47.760;-122.022;2023-03-23T09:22:02;7.6;;;2.0;;
73421;SDS011;61637;47.760;-122.022;2023-03-23T09:24:02;7.0;;;1.9;;
73421;SDS011;61637;47.760;-122.022;2023-03-23T09:26:02;8.9;;;2.0;;
73421;SDS011;61637;47.760;-122.022;2023-03-23T09:28:01;8.6;;;2.2;;
73421;SDS011;61637;47.760;-122.022;2023-03-23T09:30:01;8.6;;;1.8;;
73421;SDS011;61637;47.760;-122.022;2023-03-23T09:32:01;6.9;;;1.8;;
73421;SDS011;61637;47.760;-122.022;2023-03-23T09:34:01;6.8;;;1.8;;
73421;SDS011;61637;47.760;-122.022;2023-03-23T09:36:02;7.5;;;1.6;;
73421;SDS011;61637;47.760;-122.022;2023-03-23T09:38:02;6.9;;;1.7;;
73421;SDS011;61637;47.760;-122.022;2023-03-23T09:40:01;7.9;;;1.7;;
73421;SDS011;61637;47.760;-122.022;2023-03-23T09:42:10;6.8;;;1.6;;
73421;SDS011;61637;47.760;-122.022;2023-03-23T09:44:05;6.3;;;1.7;;
73421;SDS011;61637;47.760;-122.022;2023-03-23T09:46:13;6.5;;;1.5;;
73421;SDS011;61637;47.760;-122.022;2023-03-23T09:50:08;8.7;;;2.0;;
73421;SDS011;61637;47.760;-122.022;2023-03-23T09:52:04;5.6;;;1.6;;
73421;SDS011;61637;47.760;-122.022;2023-03-23T09:54:05;7.6;;;1.7;;
73421;SDS011;61637;47.760;-122.022;2023-03-23T09:56:03;7.6;;;1.6;;
73421;SDS011;61637;47.760;-122.022;2023-03-23T09:58:11;7.0;;;1.9;;
73421;SDS011;61637;47.760;-122.022;2023-03-23T10:00:06;8.0;;;1.6;;
73421;SDS011;61637;47.760;-122.022;2023-03-23T10:02:12;7.3;;;1.7;;
73421;SDS011;61637;47.760;-122.022;2023-03-23T10:04:07;6.4;;;1.7;;
73421;SDS011;61637;47.760;-122.022;2023-03-23T10:06:01;5.8;;;1.6;;
73421;SDS011;61637;47.760;-122.022;2023-03-23T10:08:10;5.8;;;1.7;;
73421;SDS011;61637;47.760;-122.022;2023-03-23T10:10:01;6.9;;;1.6;;
73421;SDS011;61637;47.760;-122.022;2023-03-23T10:12:07;7.0;;;1.5;;
73421;SDS011;61637;47.760;-122.022;2023-03-23T10:14:08;5.5;;;1.5;;
73421;SDS011;61637;47.760;-122.022;2023-03-23T10:16:03;7.3;;;1.6;;
73421;SDS011;61637;47.760;-122.022;2023-03-23T10:18:04;7.3;;;1.7;;
73421;SDS011;61637;47.760;-122.022;2023-03-23T10:20:15;6.5;;;1.5;;
73421;SDS011;61637;47.760;-122.022;2023-03-23T10:22:04;7.7;;;1.6;;
73421;SDS011;61637;47.760;-122.022;2023-03-23T10:24:03;8.9;;;1.5;;
73421;SDS011;61637;47.760;-122.022;2023-03-23T10:26:07;6.6;;;1.5;;
73421;SDS011;61637;47.760;-122.022;2023-03-23T10:28:06;6.8;;;1.5;;
73421;SDS011;61637;47.760;-122.022;2023-03-23T10:30:05;6.6;;;1.7;;
73421;SDS011;61637;47.760;-122.022;2023-03-23T10:32:08;6.6;;;1.7;;
73421;SDS011;61637;47.760;-122.022;2023-03-23T10:34:07;6.5;;;1.5;;
73421;SDS011;61637;47.760;-122.022;2023-03-23T10:36:07;8.7;;;1.7;;
73421;SDS011;61637;47.760;-122.022;2023-03-23T10:38:04;6.7;;;1.6;;
73421;SDS011;61637;47.760;-122.022;2023-03-23T10:40:02;8.1;;;1.7;;
73421;SDS011;61637;47.760;-122.022;2023-03-23T10:42:02;6.3;;;1.7;;
73421;SDS011;61637;47.760;-122.022;2023-03-23T10:44:03;7.9;;;1.6;;
73421;SDS011;61637;47.760;-122.022;2023-03-23T10:46:05;6.2;;;1.6;;
73421;SDS011;61637;47.760;-122.022;2023-03-23T10:48:09;5.3;;;1.5;;
73421;SDS011;61637;47.760;-122.022;2023-03-23T10:50:06;7.0;;;1.6;;
73421;SDS011;61637;47.760;-122.022;2023-03-23T10:52:06;6.2;;;1.6;;
73421;SDS011;61637;47.760;-122.022;2023-03-23T10:54:03;8.4;;;1.6;;
73421;SDS011;61637;47.760;-122.022;2023-03-23T10:56:02;5.6;;;1.5;;
73421;SDS011;61637;47.760;-122.022;2023-03-23T10:58:03;7.3;;;1.5;;
73421;SDS011;61637;47.760;-122.022;2023-03-23T11:00:05;7.7;;;1.7;;
73421;SDS011;61637;47.760;-122.022;2023-03-23T11:02:12;7.1;;;1.6;;
73421;SDS011;61637;47.760;-122.022;2023-03-23T11:04:01;7.9;;;1.7;;
73421;SDS011;61637;47.760;-122.022;2023-03-23T11:06:03;6.3;;;1.6;;
73421;SDS011;61637;47.760;-122.022;2023-03-23T11:08:02;5.3;;;1.5;;
73421;SDS011;61637;47.760;-122.022;2023-03-23T11:10:15;7.6;;;1.5;;
73421;SDS011;61637;47.760;-122.022;2023-03-23T11:12:01;6.5;;;1.6;;
73421;SDS011;61637;47.760;-122.022;2023-03-23T11:14:12;8.3;;;1.6;;
73421;SDS011;61637;47.760;-122.022;2023-03-23T11:16:01;7.2;;;1.6;;
73421;SDS011;61637;47.760;-122.022;2023-03-23T11:18:03;7.6;;;1.8;;
73421;SDS011;61637;47.760;-122.022;2023-03-23T11:20:09;6.3;;;1.5;;
73421;SDS011;61637;47.760;-122.022;2023-03-23T11:22:08;6.2;;;1.5;;
73421;SDS011;61637;47.760;-122.022;2023-03-23T11:24:02;6.2;;;1.5;;
73421;SDS011;61637;47.760;-122.022;2023-03-23T11:26:13;5.5;;;1.6;;
73421;SDS011;61637;47.760;-122.022;2023-03-23T11:28:01;5.5;;;1.6;;
73421;SDS011;61637;47.760;-122.022;2023-03-23T11:30:09;8.2;;;1.7;;
73421;SDS011;61637;47.760;-122.022;2023-03-23T11:32:04;8.2;;;1.7;;
73421;SDS011;61637;47.760;-122.022;2023-03-23T11:34:03;6.4;;;1.6;;
73421;SDS011;61637;47.760;-122.022;2023-03-23T11:36:02;8.2;;;1.8;;
73421;SDS011;61637;47.760;-122.022;2023-03-23T11:38:01;8.8;;;1.9;;
73421;SDS011;61637;47.760;-122.022;2023-03-23T11:40:14;9.6;;;2.1;;
73421;SDS011;61637;47.760;-122.022;2023-03-23T11:42:19;6.8;;;1.6;;
73421;SDS011;61637;47.760;-122.022;2023-03-23T11:44:09;5.7;;;1.6;;
73421;SDS011;61637;47.760;-122.022;2023-03-23T11:46:05;8.1;;;1.7;;
73421;SDS011;61637;47.760;-122.022;2023-03-23T11:48:11;8.2;;;1.6;;
73421;SDS011;61637;47.760;-122.022;2023-03-23T11:50:07;6.4;;;1.6;;
73421;SDS011;61637;47.760;-122.022;2023-03-23T11:52:09;7.6;;;1.5;;